SVA1704 OEJN-OEBA
Flight info
| Callsign | SVA1704 |
|---|---|
| Flight time | 0h 48m |
| Altitude | 33000 |
| Route | EGPOB V31 BHA |
| Aircraft | A320/M-SDE3FGHIRWY/LB1 |
Departure
| Time | 2026-05-05 16:26 |
|---|---|
| Airport | King Abdulaziz International Airport (OEJN) |
Arrival
| Time | 2026-05-05 17:14 |
|---|---|
| Airport | King Saud Bin Abdulaziz (Al Baha) Airport (OEBA) |
| Time | Latitude | Longitude | Altitude | Speed | Heading |
|---|---|---|---|---|---|
| 2026-05-05 15:59 | 21.66650 | 39.17053 | 31 ft | 0 kts | 69° |
| 2026-05-05 16:15 | 21.66650 | 39.17051 | 30 ft | 2 kts | 69° |
| 2026-05-05 16:15 | 21.66632 | 39.16998 | 30 ft | 4 kts | 73° |
| 2026-05-05 16:16 | 21.66628 | 39.16945 | 30 ft | 4 kts | 140° |
| 2026-05-05 16:16 | 21.66632 | 39.16941 | 30 ft | 0 kts | 159° |
| 2026-05-05 16:20 | 21.66559 | 39.16971 | 31 ft | 15 kts | 159° |
| 2026-05-05 16:21 | 21.66405 | 39.17020 | 31 ft | 9 kts | 181° |
| 2026-05-05 16:22 | 21.66274 | 39.16896 | 31 ft | 12 kts | 250° |
| 2026-05-05 16:22 | 21.66210 | 39.16712 | 31 ft | 15 kts | 250° |
| 2026-05-05 16:23 | 21.66185 | 39.16640 | 30 ft | 0 kts | 249° |
| 2026-05-05 16:23 | 21.66169 | 39.16595 | 31 ft | 14 kts | 249° |
| 2026-05-05 16:24 | 21.66147 | 39.16483 | 31 ft | 16 kts | 288° |
| 2026-05-05 16:24 | 21.66188 | 39.16454 | 30 ft | 0 kts | 344° |
| 2026-05-05 16:24 | 21.66237 | 39.16444 | 30 ft | 0 kts | 339° |
| 2026-05-05 16:25 | 21.66242 | 39.16442 | 29 ft | 5 kts | 340° |
| 2026-05-05 16:25 | 21.67204 | 39.16062 | 34 ft | 136 kts | 340° |
| 2026-05-05 16:25 | 21.68188 | 39.15659 | 393 ft | 155 kts | 339° |
| 2026-05-05 16:26 | 21.70218 | 39.14867 | 1726 ft | 163 kts | 342° |
| 2026-05-05 16:26 | 21.72656 | 39.13915 | 2381 ft | 211 kts | 341° |
| 2026-05-05 16:27 | 21.74114 | 39.13341 | 2801 ft | 235 kts | 340° |
| 2026-05-05 16:27 | 21.75694 | 39.12719 | 3444 ft | 248 kts | 339° |
| 2026-05-05 16:27 | 21.77330 | 39.12073 | 4350 ft | 251 kts | 339° |
| 2026-05-05 16:27 | 21.78973 | 39.11427 | 5116 ft | 259 kts | 338° |
| 2026-05-05 16:28 | 21.80697 | 39.10746 | 5821 ft | 269 kts | 338° |
| 2026-05-05 16:28 | 21.82485 | 39.10035 | 6372 ft | 277 kts | 338° |
| 2026-05-05 16:28 | 21.84302 | 39.09313 | 7211 ft | 279 kts | 338° |
| 2026-05-05 16:28 | 21.86140 | 39.08582 | 8016 ft | 284 kts | 338° |
| 2026-05-05 16:29 | 21.88016 | 39.07837 | 8788 ft | 290 kts | 338° |
| 2026-05-05 16:29 | 21.89926 | 39.07073 | 9567 ft | 296 kts | 335° |
| 2026-05-05 16:29 | 21.91854 | 39.06219 | 10239 ft | 305 kts | 334° |
| 2026-05-05 16:29 | 21.93869 | 39.05258 | 10508 ft | 328 kts | 331° |
| 2026-05-05 16:30 | 21.96024 | 39.04201 | 10724 ft | 352 kts | 333° |
| 2026-05-05 16:30 | 21.98299 | 39.03086 | 11158 ft | 365 kts | 333° |
| 2026-05-05 16:30 | 22.00632 | 39.01954 | 11808 ft | 370 kts | 332° |
| 2026-05-05 16:30 | 22.02996 | 39.00817 | 12520 ft | 374 kts | 332° |
| 2026-05-05 16:31 | 22.05388 | 38.99671 | 13243 ft | 378 kts | 332° |
| 2026-05-05 16:31 | 22.07801 | 38.98518 | 13933 ft | 382 kts | 332° |
| 2026-05-05 16:31 | 22.10209 | 38.97276 | 14569 ft | 382 kts | 324° |
| 2026-05-05 16:31 | 22.12196 | 38.95414 | 15152 ft | 378 kts | 305° |
| 2026-05-05 16:32 | 22.13481 | 38.92971 | 15765 ft | 375 kts | 286° |
| 2026-05-05 16:32 | 22.13950 | 38.90230 | 16387 ft | 372 kts | 268° |
| 2026-05-05 16:32 | 22.13576 | 38.87489 | 16987 ft | 371 kts | 250° |
| 2026-05-05 16:32 | 22.12569 | 38.84929 | 17629 ft | 372 kts | 245° |
| 2026-05-05 16:33 | 22.11498 | 38.82370 | 18215 ft | 376 kts | 245° |
| 2026-05-05 16:33 | 22.10414 | 38.79785 | 18682 ft | 381 kts | 245° |
| 2026-05-05 16:33 | 22.09138 | 38.77286 | 19205 ft | 382 kts | 232° |
| 2026-05-05 16:33 | 22.07242 | 38.75337 | 19722 ft | 386 kts | 214° |
| 2026-05-05 16:34 | 22.04785 | 38.74157 | 20222 ft | 393 kts | 195° |
| 2026-05-05 16:34 | 22.02038 | 38.73982 | 20716 ft | 403 kts | 175° |
| 2026-05-05 16:34 | 21.99317 | 38.74819 | 21199 ft | 412 kts | 163° |
| 2026-05-05 16:34 | 21.96630 | 38.75922 | 21701 ft | 414 kts | 163° |
| 2026-05-05 16:35 | 21.93936 | 38.77045 | 22181 ft | 417 kts | 163° |
| 2026-05-05 16:35 | 21.91219 | 38.78180 | 22665 ft | 420 kts | 163° |
| 2026-05-05 16:35 | 21.88482 | 38.79317 | 23138 ft | 423 kts | 163° |
| 2026-05-05 16:35 | 21.85724 | 38.80453 | 23569 ft | 426 kts | 163° |
| 2026-05-05 16:36 | 21.82944 | 38.81591 | 23943 ft | 428 kts | 164° |
| 2026-05-05 16:36 | 21.80148 | 38.82731 | 24326 ft | 431 kts | 164° |
| 2026-05-05 16:36 | 21.77341 | 38.83877 | 24671 ft | 433 kts | 164° |
| 2026-05-05 16:36 | 21.74513 | 38.85031 | 25022 ft | 436 kts | 164° |
| 2026-05-05 16:37 | 21.71671 | 38.86189 | 25383 ft | 438 kts | 164° |
| 2026-05-05 16:37 | 21.68820 | 38.87354 | 25757 ft | 440 kts | 164° |
| 2026-05-05 16:37 | 21.65950 | 38.88529 | 26129 ft | 442 kts | 165° |
| 2026-05-05 16:37 | 21.63068 | 38.89708 | 26493 ft | 444 kts | 165° |
| 2026-05-05 16:38 | 21.60170 | 38.90894 | 26849 ft | 446 kts | 165° |
| 2026-05-05 16:38 | 21.57262 | 38.92082 | 27200 ft | 448 kts | 165° |
| 2026-05-05 16:38 | 21.54340 | 38.93275 | 27543 ft | 450 kts | 165° |
| 2026-05-05 16:38 | 21.51399 | 38.94472 | 27874 ft | 452 kts | 165° |
| 2026-05-05 16:39 | 21.48456 | 38.95666 | 28188 ft | 455 kts | 165° |
| 2026-05-05 16:39 | 21.45525 | 38.96857 | 28490 ft | 457 kts | 165° |
| 2026-05-05 16:39 | 21.42549 | 38.98068 | 28798 ft | 459 kts | 165° |
| 2026-05-05 16:39 | 21.39564 | 38.99283 | 29100 ft | 461 kts | 165° |
| 2026-05-05 16:40 | 21.36580 | 39.00495 | 29402 ft | 462 kts | 165° |
| 2026-05-05 16:40 | 21.33562 | 39.01722 | 29702 ft | 464 kts | 165° |
| 2026-05-05 16:40 | 21.30533 | 39.02956 | 30048 ft | 464 kts | 165° |
| 2026-05-05 16:40 | 21.27522 | 39.04185 | 30400 ft | 463 kts | 165° |
| 2026-05-05 16:41 | 21.24532 | 39.05480 | 30749 ft | 467 kts | 160° |
| 2026-05-05 16:41 | 21.21749 | 39.07327 | 31077 ft | 477 kts | 148° |
| 2026-05-05 16:41 | 21.19340 | 39.09831 | 31385 ft | 488 kts | 135° |
| 2026-05-05 16:41 | 21.17467 | 39.12901 | 31704 ft | 499 kts | 121° |
| 2026-05-05 16:42 | 21.16261 | 39.16416 | 32017 ft | 508 kts | 107° |
| 2026-05-05 16:42 | 21.15631 | 39.20155 | 32334 ft | 511 kts | 103° |
| 2026-05-05 16:42 | 21.15044 | 39.23910 | 32673 ft | 511 kts | 103° |
| 2026-05-05 16:42 | 21.14454 | 39.27664 | 32848 ft | 511 kts | 103° |
| 2026-05-05 16:43 | 21.13261 | 39.35154 | 32887 ft | 509 kts | 103° |
| 2026-05-05 16:43 | 21.12071 | 39.42606 | 32905 ft | 508 kts | 104° |
| 2026-05-05 16:44 | 21.10738 | 39.50023 | 32904 ft | 504 kts | 111° |
| 2026-05-05 16:44 | 21.07904 | 39.56747 | 32902 ft | 490 kts | 129° |
| 2026-05-05 16:45 | 21.03855 | 39.62553 | 32890 ft | 486 kts | 133° |
| 2026-05-05 16:45 | 20.99760 | 39.68301 | 32904 ft | 485 kts | 133° |
| 2026-05-05 16:46 | 20.95708 | 39.74015 | 32891 ft | 485 kts | 133° |
| 2026-05-05 16:46 | 20.92029 | 39.80092 | 32904 ft | 494 kts | 119° |
| 2026-05-05 16:47 | 20.89606 | 39.87003 | 32901 ft | 497 kts | 114° |
| 2026-05-05 16:47 | 20.87265 | 39.93952 | 32907 ft | 497 kts | 114° |
| 2026-05-05 16:48 | 20.84912 | 40.00904 | 32920 ft | 497 kts | 114° |
| 2026-05-05 16:48 | 20.82563 | 40.07850 | 32924 ft | 497 kts | 114° |
| 2026-05-05 16:49 | 20.80214 | 40.14800 | 32934 ft | 496 kts | 114° |
| 2026-05-05 16:49 | 20.77868 | 40.21728 | 32950 ft | 496 kts | 114° |
| 2026-05-05 16:50 | 20.75515 | 40.28652 | 32944 ft | 496 kts | 114° |
| 2026-05-05 16:50 | 20.73157 | 40.35570 | 32953 ft | 496 kts | 114° |
| 2026-05-05 16:51 | 20.70800 | 40.42502 | 32970 ft | 497 kts | 114° |
| 2026-05-05 16:51 | 20.68434 | 40.49434 | 32989 ft | 497 kts | 114° |
| 2026-05-05 16:52 | 20.66466 | 40.55202 | 32997 ft | 497 kts | 114° |
| 2026-05-05 16:52 | 20.64094 | 40.62136 | 33016 ft | 497 kts | 114° |
| 2026-05-05 16:53 | 20.61715 | 40.69060 | 33033 ft | 497 kts | 115° |
| 2026-05-05 16:53 | 20.59334 | 40.75984 | 33004 ft | 498 kts | 114° |
| 2026-05-05 16:54 | 20.57756 | 40.80573 | 32628 ft | 497 kts | 114° |
| 2026-05-05 16:54 | 20.56954 | 40.82907 | 32463 ft | 497 kts | 114° |
| 2026-05-05 16:54 | 20.55764 | 40.86377 | 32218 ft | 498 kts | 114° |
| 2026-05-05 16:54 | 20.54578 | 40.89830 | 31556 ft | 498 kts | 114° |
| 2026-05-05 16:55 | 20.53368 | 40.93338 | 30341 ft | 508 kts | 114° |
| 2026-05-05 16:55 | 20.52136 | 40.96894 | 28951 ft | 515 kts | 114° |
| 2026-05-05 16:55 | 20.50908 | 41.00448 | 27440 ft | 508 kts | 113° |
| 2026-05-05 16:55 | 20.49702 | 41.03947 | 26351 ft | 492 kts | 113° |
| 2026-05-05 16:56 | 20.48555 | 41.07289 | 25633 ft | 470 kts | 113° |
| 2026-05-05 16:56 | 20.47452 | 41.10505 | 24859 ft | 454 kts | 113° |
| 2026-05-05 16:56 | 20.46386 | 41.13610 | 24085 ft | 439 kts | 113° |
| 2026-05-05 16:56 | 20.45361 | 41.16585 | 23305 ft | 430 kts | 113° |
| 2026-05-05 16:57 | 20.44331 | 41.19557 | 22587 ft | 425 kts | 112° |
| 2026-05-05 16:57 | 20.43310 | 41.22494 | 21899 ft | 420 kts | 112° |
| 2026-05-05 16:57 | 20.42297 | 41.25403 | 21240 ft | 416 kts | 112° |
| 2026-05-05 16:57 | 20.41318 | 41.28223 | 20626 ft | 411 kts | 112° |
| 2026-05-05 16:58 | 20.40234 | 41.31057 | 19993 ft | 418 kts | 121° |
| 2026-05-05 16:58 | 20.38484 | 41.33512 | 19382 ft | 416 kts | 139° |
| 2026-05-05 16:58 | 20.36140 | 41.35229 | 18785 ft | 409 kts | 157° |
| 2026-05-05 16:58 | 20.33428 | 41.36052 | 18149 ft | 405 kts | 174° |
| 2026-05-05 16:59 | 20.30650 | 41.35903 | 17448 ft | 400 kts | 193° |
| 2026-05-05 16:59 | 20.28088 | 41.34804 | 16787 ft | 397 kts | 211° |
| 2026-05-05 16:59 | 20.25812 | 41.33147 | 16111 ft | 394 kts | 215° |
| 2026-05-05 16:59 | 20.23584 | 41.31455 | 15454 ft | 392 kts | 215° |
| 2026-05-05 17:00 | 20.21375 | 41.29763 | 14804 ft | 391 kts | 215° |
| 2026-05-05 17:00 | 20.19178 | 41.28069 | 14175 ft | 389 kts | 215° |
| 2026-05-05 17:00 | 20.16993 | 41.26373 | 13517 ft | 387 kts | 215° |
| 2026-05-05 17:00 | 20.14829 | 41.24687 | 12786 ft | 384 kts | 215° |
| 2026-05-05 17:01 | 20.12680 | 41.23022 | 12128 ft | 382 kts | 215° |
| 2026-05-05 17:01 | 20.10533 | 41.21372 | 11480 ft | 379 kts | 216° |
| 2026-05-05 17:01 | 20.08391 | 41.19752 | 10844 ft | 376 kts | 214° |
| 2026-05-05 17:01 | 20.06287 | 41.18135 | 10197 ft | 372 kts | 224° |
| 2026-05-05 17:02 | 20.04751 | 41.15957 | 9524 ft | 368 kts | 243° |
| 2026-05-05 17:02 | 20.03971 | 41.13396 | 9019 ft | 361 kts | 262° |
| 2026-05-05 17:02 | 20.03986 | 41.10801 | 8990 ft | 341 kts | 278° |
| 2026-05-05 17:02 | 20.04631 | 41.08487 | 8978 ft | 323 kts | 294° |
| 2026-05-05 17:03 | 20.05800 | 41.06534 | 8986 ft | 306 kts | 310° |
| 2026-05-05 17:03 | 20.07359 | 41.05057 | 8988 ft | 299 kts | 325° |
| 2026-05-05 17:03 | 20.09213 | 41.04071 | 8985 ft | 298 kts | 341° |
| 2026-05-05 17:03 | 20.11236 | 41.03632 | 9005 ft | 298 kts | 356° |
| 2026-05-05 17:04 | 20.13304 | 41.03763 | 9006 ft | 299 kts | 11° |
| 2026-05-05 17:04 | 20.15276 | 41.04467 | 9006 ft | 300 kts | 27° |
| 2026-05-05 17:04 | 20.17012 | 41.05701 | 9007 ft | 301 kts | 42° |
| 2026-05-05 17:04 | 20.18379 | 41.07367 | 9007 ft | 301 kts | 57° |
| 2026-05-05 17:05 | 20.19296 | 41.09358 | 9061 ft | 301 kts | 73° |
| 2026-05-05 17:05 | 20.19795 | 41.11516 | 9063 ft | 300 kts | 78° |
| 2026-05-05 17:05 | 20.20255 | 41.13682 | 9061 ft | 300 kts | 78° |
| 2026-05-05 17:05 | 20.20720 | 41.15847 | 9061 ft | 300 kts | 77° |
| 2026-05-05 17:06 | 20.21181 | 41.17984 | 9085 ft | 289 kts | 77° |
| 2026-05-05 17:06 | 20.21620 | 41.20016 | 9083 ft | 273 kts | 77° |
| 2026-05-05 17:06 | 20.22034 | 41.21929 | 9080 ft | 258 kts | 78° |
| 2026-05-05 17:06 | 20.22424 | 41.23736 | 9081 ft | 245 kts | 77° |
| 2026-05-05 17:07 | 20.22748 | 41.25485 | 9272 ft | 235 kts | 84° |
| 2026-05-05 17:07 | 20.22845 | 41.27171 | 9724 ft | 225 kts | 92° |
| 2026-05-05 17:07 | 20.22751 | 41.28831 | 10136 ft | 226 kts | 95° |
| 2026-05-05 17:07 | 20.22688 | 41.30511 | 10145 ft | 228 kts | 90° |
| 2026-05-05 17:08 | 20.22760 | 41.32178 | 10052 ft | 221 kts | 87° |
| 2026-05-05 17:08 | 20.22887 | 41.33748 | 10043 ft | 205 kts | 88° |
| 2026-05-05 17:08 | 20.22998 | 41.35215 | 9980 ft | 195 kts | 86° |
| 2026-05-05 17:08 | 20.23108 | 41.36620 | 9883 ft | 186 kts | 86° |
| 2026-05-05 17:09 | 20.23205 | 41.37956 | 9798 ft | 176 kts | 87° |
| 2026-05-05 17:09 | 20.23292 | 41.39240 | 9710 ft | 172 kts | 86° |
| 2026-05-05 17:09 | 20.23397 | 41.40514 | 9494 ft | 173 kts | 84° |
| 2026-05-05 17:09 | 20.23572 | 41.41783 | 9264 ft | 174 kts | 82° |
| 2026-05-05 17:10 | 20.23770 | 41.43058 | 9029 ft | 175 kts | 80° |
| 2026-05-05 17:10 | 20.24001 | 41.44335 | 8792 ft | 177 kts | 78° |
| 2026-05-05 17:10 | 20.24305 | 41.45606 | 8580 ft | 177 kts | 74° |
| 2026-05-05 17:10 | 20.24684 | 41.46853 | 8365 ft | 177 kts | 74° |
| 2026-05-05 17:11 | 20.25021 | 41.48111 | 8160 ft | 177 kts | 75° |
| 2026-05-05 17:11 | 20.25374 | 41.49359 | 7940 ft | 176 kts | 73° |
| 2026-05-05 17:11 | 20.25715 | 41.50629 | 7715 ft | 179 kts | 75° |
| 2026-05-05 17:11 | 20.26053 | 41.51889 | 7563 ft | 176 kts | 73° |
| 2026-05-05 17:12 | 20.26441 | 41.53126 | 7340 ft | 176 kts | 71° |
| 2026-05-05 17:12 | 20.26828 | 41.54352 | 7011 ft | 173 kts | 72° |
| 2026-05-05 17:12 | 20.27185 | 41.55581 | 6720 ft | 174 kts | 71° |
| 2026-05-05 17:12 | 20.27577 | 41.56807 | 6439 ft | 173 kts | 70° |
| 2026-05-05 17:13 | 20.27968 | 41.58003 | 6204 ft | 171 kts | 70° |
| 2026-05-05 17:13 | 20.28355 | 41.59143 | 6071 ft | 162 kts | 69° |
| 2026-05-05 17:13 | 20.28719 | 41.60266 | 5847 ft | 159 kts | 69° |
| 2026-05-05 17:13 | 20.29101 | 41.61385 | 5693 ft | 159 kts | 69° |
| 2026-05-05 17:14 | 20.29462 | 41.62475 | 5471 ft | 156 kts | 69° |
| 2026-05-05 17:14 | 20.29804 | 41.63546 | 5456 ft | 153 kts | 67° |
| 2026-05-05 17:14 | 20.30122 | 41.64469 | 5440 ft | 84 kts | 71° |
| 2026-05-05 17:14 | 20.30242 | 41.64848 | 5435 ft | 48 kts | 71° |
| 2026-05-05 17:15 | 20.30261 | 41.65068 | 5438 ft | 18 kts | 149° |
| 2026-05-05 17:15 | 20.30155 | 41.65061 | 5437 ft | 16 kts | 220° |
| 2026-05-05 17:15 | 20.30103 | 41.64950 | 5437 ft | 18 kts | 251° |
| 2026-05-05 17:15 | 20.30062 | 41.64821 | 5436 ft | 19 kts | 251° |
| 2026-05-05 17:16 | 20.30019 | 41.64683 | 5438 ft | 20 kts | 252° |
| 2026-05-05 17:16 | 20.29974 | 41.64536 | 5438 ft | 21 kts | 252° |
| 2026-05-05 17:16 | 20.29917 | 41.64386 | 5438 ft | 22 kts | 249° |
| 2026-05-05 17:16 | 20.29863 | 41.64226 | 5436 ft | 24 kts | 251° |
| 2026-05-05 17:17 | 20.29802 | 41.64068 | 5437 ft | 21 kts | 226° |
| 2026-05-05 17:17 | 20.29665 | 41.64079 | 5437 ft | 19 kts | 159° |
| 2026-05-05 17:17 | 20.29567 | 41.64062 | 5437 ft | 12 kts | 209° |
| 2026-05-05 17:17 | 20.29526 | 41.64039 | 5437 ft | 4 kts | 205° |
| 2026-05-05 17:18 | 20.29514 | 41.64032 | 5437 ft | 0 kts | 206° |